Rafael Godeiro, Brazil
Current Conditions -  °F | °C
As of 12:00 PM on Thursday 23 Oct 2014 (Local Time) from SBMS Reporting Station
Broken Clouds Broken Clouds  
Wind Chill: 95°   Ceiling: 3000
Heat Index: 97°   Visibility: 6mi
Dew Point: 64°   Wind: 8mph
Humidity: 36%   Direction: 120°ESE
Pressure: 29.88"   Gusts: NA
Location:  6.08°S, 37.72°W
Report Text: SBMS 231500Z 12007KT 9999 BKN030 35/18 Q1012
Loading
Personal Weather Stations






























Interactive Weather Map
Tropical Storm Tracking
New forecast layout! Learn more

10-Day Weather Forecast

Advertisements
Track Severe Weather on mobile